sensor_id;sensor_type;location;lat;lon;timestamp;pressure;altitude;pressure_sealevel;temperature;humidity
65376;BME280;51976;47.332;9.404;2022-10-31T00:01:27;93405.19;;;18.66;52.44
65376;BME280;51976;47.332;9.404;2022-10-31T00:03:53;93405.84;;;18.63;52.69
65376;BME280;51976;47.332;9.404;2022-10-31T00:06:18;93406.63;;;18.64;52.47
65376;BME280;51976;47.332;9.404;2022-10-31T00:08:45;93406.31;;;18.65;52.40
65376;BME280;51976;47.332;9.404;2022-10-31T00:11:11;93403.91;;;18.64;52.45
65376;BME280;51976;47.332;9.404;2022-10-31T00:13:36;93407.75;;;18.63;52.38
65376;BME280;51976;47.332;9.404;2022-10-31T00:16:01;93405.34;;;18.61;52.55
65376;BME280;51976;47.332;9.404;2022-10-31T00:18:27;93400.06;;;18.65;52.64
65376;BME280;51976;47.332;9.404;2022-10-31T00:21:02;93406.63;;;18.64;52.27
65376;BME280;51976;47.332;9.404;2022-10-31T00:23:28;93406.47;;;18.60;52.48
65376;BME280;51976;47.332;9.404;2022-10-31T00:25:53;93397.97;;;18.62;52.52
65376;BME280;51976;47.332;9.404;2022-10-31T00:28:19;93403.09;;;18.63;52.29
65376;BME280;51976;47.332;9.404;2022-10-31T00:30:44;93396.53;;;18.64;52.54
65376;BME280;51976;47.332;9.404;2022-10-31T00:33:09;93396.03;;;18.62;52.37
65376;BME280;51976;47.332;9.404;2022-10-31T00:35:35;93396.34;;;18.60;52.64
65376;BME280;51976;47.332;9.404;2022-10-31T00:38:00;93387.03;;;18.62;52.32
65376;BME280;51976;47.332;9.404;2022-10-31T00:40:26;93390.56;;;18.62;52.42
65376;BME280;51976;47.332;9.404;2022-10-31T00:42:51;93396.53;;;18.64;52.13
65376;BME280;51976;47.332;9.404;2022-10-31T00:45:16;93396.34;;;18.60;52.26
65376;BME280;51976;47.332;9.404;2022-10-31T00:47:42;93395.22;;;18.62;52.29
65376;BME280;51976;47.332;9.404;2022-10-31T00:50:07;93387.03;;;18.62;52.33
65376;BME280;51976;47.332;9.404;2022-10-31T00:52:33;93391.69;;;18.61;52.38
65376;BME280;51976;47.332;9.404;2022-10-31T00:54:59;93384.00;;;18.63;52.29
65376;BME280;51976;47.332;9.404;2022-10-31T00:57:24;93386.56;;;18.59;52.35
65376;BME280;51976;47.332;9.404;2022-10-31T00:59:49;93385.25;;;18.57;52.16
65376;BME280;51976;47.332;9.404;2022-10-31T01:02:15;93387.66;;;18.58;52.39
65376;BME280;51976;47.332;9.404;2022-10-31T01:04:40;93388.78;;;18.57;52.45
65376;BME280;51976;47.332;9.404;2022-10-31T01:07:06;93388.97;;;18.61;52.50
65376;BME280;51976;47.332;9.404;2022-10-31T01:09:32;93381.72;;;18.56;52.52
65376;BME280;51976;47.332;9.404;2022-10-31T01:11:57;93384.78;;;18.55;52.36
65376;BME280;51976;47.332;9.404;2022-10-31T01:14:22;93383.31;;;18.57;52.51
65376;BME280;51976;47.332;9.404;2022-10-31T01:16:48;93381.41;;;18.58;52.32
65376;BME280;51976;47.332;9.404;2022-10-31T01:19:13;93382.03;;;18.55;52.50
65376;BME280;51976;47.332;9.404;2022-10-31T01:21:38;93379.47;;;18.58;52.39
65376;BME280;51976;47.332;9.404;2022-10-31T01:24:04;93374.34;;;18.57;52.11
65376;BME280;51976;47.332;9.404;2022-10-31T01:26:31;93377.38;;;18.55;52.25
65376;BME280;51976;47.332;9.404;2022-10-31T01:28:59;93373.34;;;18.53;52.26
65376;BME280;51976;47.332;9.404;2022-10-31T01:31:27;93373.84;;;18.55;52.27
65376;BME280;51976;47.332;9.404;2022-10-31T01:33:53;93370.81;;;18.56;52.13
65376;BME280;51976;47.332;9.404;2022-10-31T01:36:24;93371.59;;;18.57;52.36
65376;BME280;51976;47.332;9.404;2022-10-31T01:38:51;93369.19;;;18.55;52.11
65376;BME280;51976;47.332;9.404;2022-10-31T01:41:19;93367.59;;;18.54;52.42
65376;BME280;51976;47.332;9.404;2022-10-31T01:43:52;93368.38;;;18.55;52.39
65376;BME280;51976;47.332;9.404;2022-10-31T01:46:31;93367.59;;;18.54;52.25
65376;BME280;51976;47.332;9.404;2022-10-31T01:49:00;93364.84;;;18.54;52.04
65376;BME280;51976;47.332;9.404;2022-10-31T01:51:34;93370.47;;;18.58;52.17
65376;BME280;51976;47.332;9.404;2022-10-31T01:54:06;93364.22;;;18.57;51.99
65376;BME280;51976;47.332;9.404;2022-10-31T01:56:34;93359.41;;;18.54;52.21
65376;BME280;51976;47.332;9.404;2022-10-31T01:59:05;93358.59;;;18.54;52.22
65376;BME280;51976;47.332;9.404;2022-10-31T02:01:33;93358.59;;;18.54;52.06
65376;BME280;51976;47.332;9.404;2022-10-31T02:03:59;93346.88;;;18.53;52.19
65376;BME280;51976;47.332;9.404;2022-10-31T02:06:33;93347.66;;;18.54;52.16
65376;BME280;51976;47.332;9.404;2022-10-31T02:09:03;93351.19;;;18.54;52.50
65376;BME280;51976;47.332;9.404;2022-10-31T02:11:29;93350.88;;;18.56;52.33
65376;BME280;51976;47.332;9.404;2022-10-31T02:13:54;93345.75;;;18.54;52.22
65376;BME280;51976;47.332;9.404;2022-10-31T02:16:20;93349.28;;;18.55;52.44
65376;BME280;51976;47.332;9.404;2022-10-31T02:18:45;93347.66;;;18.54;52.16
65376;BME280;51976;47.332;9.404;2022-10-31T02:21:42;93346.22;;;18.56;52.58
65376;BME280;51976;47.332;9.404;2022-10-31T02:24:40;93349.75;;;18.57;52.16
65376;BME280;51976;47.332;9.404;2022-10-31T02:30:16;93351.19;;;18.54;52.32
65376;BME280;51976;47.332;9.404;2022-10-31T02:33:07;93346.88;;;18.53;52.14
65376;BME280;51976;47.332;9.404;2022-10-31T02:36:00;93337.56;;;18.54;52.10
65376;BME280;51976;47.332;9.404;2022-10-31T02:41:34;93334.34;;;18.52;52.45
65376;BME280;51976;47.332;9.404;2022-10-31T02:44:09;93346.88;;;18.53;52.18
65376;BME280;51976;47.332;9.404;2022-10-31T02:46:48;93338.66;;;18.53;52.38
65376;BME280;51976;47.332;9.404;2022-10-31T02:49:27;93336.75;;;18.54;52.05
65376;BME280;51976;47.332;9.404;2022-10-31T02:51:53;93346.06;;;18.53;52.31
65376;BME280;51976;47.332;9.404;2022-10-31T02:54:24;93343.00;;;18.54;52.18
65376;BME280;51976;47.332;9.404;2022-10-31T02:57:00;93350.06;;;18.55;52.42
65376;BME280;51976;47.332;9.404;2022-10-31T02:59:29;93341.41;;;18.53;52.43
65376;BME280;51976;47.332;9.404;2022-10-31T03:02:25;93338.66;;;18.53;52.35
65376;BME280;51976;47.332;9.404;2022-10-31T03:05:15;93335.44;;;18.51;52.34
65376;BME280;51976;47.332;9.404;2022-10-31T03:08:01;93342.53;;;18.52;52.16
65376;BME280;51976;47.332;9.404;2022-10-31T03:10:51;93331.59;;;18.52;52.25
65376;BME280;51976;47.332;9.404;2022-10-31T03:13:39;93328.06;;;18.52;52.37
65376;BME280;51976;47.332;9.404;2022-10-31T03:16:15;93338.66;;;18.53;52.23
65376;BME280;51976;47.332;9.404;2022-10-31T03:18:49;93335.94;;;18.53;52.14
65376;BME280;51976;47.332;9.404;2022-10-31T03:21:26;93331.59;;;18.52;52.09
65376;BME280;51976;47.332;9.404;2022-10-31T03:23:54;93330.47;;;18.53;52.08
65376;BME280;51976;47.332;9.404;2022-10-31T03:26:23;93329.34;;;18.54;51.91
65376;BME280;51976;47.332;9.404;2022-10-31T03:29:00;93335.94;;;18.53;51.89
65376;BME280;51976;47.332;9.404;2022-10-31T03:31:32;93325.81;;;18.54;51.88
65376;BME280;51976;47.332;9.404;2022-10-31T03:34:00;93324.38;;;18.56;51.86
65376;BME280;51976;47.332;9.404;2022-10-31T03:36:27;93331.28;;;18.54;51.96
65376;BME280;51976;47.332;9.404;2022-10-31T03:38:56;93334.50;;;18.56;51.91
65376;BME280;51976;47.332;9.404;2022-10-31T03:41:26;93330.34;;;18.58;51.91
65376;BME280;51976;47.332;9.404;2022-10-31T03:44:00;93328.41;;;18.59;51.67
65376;BME280;51976;47.332;9.404;2022-10-31T03:46:28;93332.88;;;18.55;51.72
65376;BME280;51976;47.332;9.404;2022-10-31T03:48:54;93329.34;;;18.54;51.74
65376;BME280;51976;47.332;9.404;2022-10-31T03:51:30;93337.72;;;18.58;51.61
65376;BME280;51976;47.332;9.404;2022-10-31T03:54:08;93331.28;;;18.54;51.88
65376;BME280;51976;47.332;9.404;2022-10-31T03:56:37;93332.09;;;18.54;51.61
65376;BME280;51976;47.332;9.404;2022-10-31T03:59:08;93331.97;;;18.59;51.58
65376;BME280;51976;47.332;9.404;2022-10-31T04:01:39;93321.97;;;18.55;51.90
65376;BME280;51976;47.332;9.404;2022-10-31T04:04:06;93329.03;;;18.56;51.81
65376;BME280;51976;47.332;9.404;2022-10-31T04:06:34;93323.91;;;18.54;51.73
65376;BME280;51976;47.332;9.404;2022-10-31T04:09:03;93318.44;;;18.54;51.80
65376;BME280;51976;47.332;9.404;2022-10-31T04:11:36;93312.97;;;18.54;51.59
65376;BME280;51976;47.332;9.404;2022-10-31T04:14:04;93319.72;;;18.57;51.50
65376;BME280;51976;47.332;9.404;2022-10-31T04:16:30;93312.03;;;18.59;51.84
65376;BME280;51976;47.332;9.404;2022-10-31T04:18:56;93310.41;;;18.58;51.78
65376;BME280;51976;47.332;9.404;2022-10-31T04:21:27;93314.25;;;18.57;51.68
65376;BME280;51976;47.332;9.404;2022-10-31T04:23:53;93317.66;;;18.63;51.37
65376;BME280;51976;47.332;9.404;2022-10-31T04:26:19;93315.09;;;18.66;51.34
65376;BME280;51976;47.332;9.404;2022-10-31T04:28:44;93303.34;;;18.57;51.81
65376;BME280;51976;47.332;9.404;2022-10-31T04:31:11;93300.78;;;18.60;51.33
65376;BME280;51976;47.332;9.404;2022-10-31T04:33:37;93304.66;;;18.59;51.57
65376;BME280;51976;47.332;9.404;2022-10-31T04:36:03;93298.22;;;18.64;51.15
65376;BME280;51976;47.332;9.404;2022-10-31T04:38:29;93294.53;;;18.60;51.36
65376;BME280;51976;47.332;9.404;2022-10-31T04:40:55;93291.94;;;18.64;51.37
65376;BME280;51976;47.332;9.404;2022-10-31T04:43:20;93288.88;;;18.56;51.42
65376;BME280;51976;47.332;9.404;2022-10-31T04:45:46;93290.03;;;18.64;51.29
65376;BME280;51976;47.332;9.404;2022-10-31T04:48:11;93281.03;;;18.64;51.28
65376;BME280;51976;47.332;9.404;2022-10-31T04:50:36;93272.84;;;18.64;51.02
65376;BME280;51976;47.332;9.404;2022-10-31T04:53:02;93270.09;;;18.64;51.19
65376;BME280;51976;47.332;9.404;2022-10-31T04:55:27;93280.06;;;18.68;51.31
65376;BME280;51976;47.332;9.404;2022-10-31T04:57:53;93268.19;;;18.64;51.14
65376;BME280;51976;47.332;9.404;2022-10-31T05:00:20;93266.88;;;18.62;51.10
65376;BME280;51976;47.332;9.404;2022-10-31T05:02:47;93264.00;;;18.67;51.09
65376;BME280;51976;47.332;9.404;2022-10-31T05:05:14;93259.81;;;18.60;51.57
65376;BME280;51976;47.332;9.404;2022-10-31T05:07:41;93254.53;;;18.64;51.27
65376;BME280;51976;47.332;9.404;2022-10-31T05:10:12;93259.66;;;18.57;51.13
65376;BME280;51976;47.332;9.404;2022-10-31T05:12:45;93256.44;;;18.64;51.25
65376;BME280;51976;47.332;9.404;2022-10-31T05:15:11;93246.66;;;18.63;51.25
65376;BME280;51976;47.332;9.404;2022-10-31T05:17:36;93261.91;;;18.64;50.71
65376;BME280;51976;47.332;9.404;2022-10-31T05:20:02;93267.69;;;18.62;51.13
65376;BME280;51976;47.332;9.404;2022-10-31T05:22:27;93263.19;;;18.66;50.89
65376;BME280;51976;47.332;9.404;2022-10-31T05:24:52;93243.75;;;18.68;51.27
65376;BME280;51976;47.332;9.404;2022-10-31T05:27:18;93241.03;;;18.68;51.15
65376;BME280;51976;47.332;9.404;2022-10-31T05:29:43;93246.81;;;18.66;50.76
65376;BME280;51976;47.332;9.404;2022-10-31T05:32:09;93240.56;;;18.66;51.01
65376;BME280;51976;47.332;9.404;2022-10-31T05:34:34;93247.78;;;18.70;51.07
65376;BME280;51976;47.332;9.404;2022-10-31T05:36:59;93241.03;;;18.68;51.08
65376;BME280;51976;47.332;9.404;2022-10-31T05:39:25;93235.09;;;18.66;51.14
65376;BME280;51976;47.332;9.404;2022-10-31T05:41:50;93229.63;;;18.66;51.21
65376;BME280;51976;47.332;9.404;2022-10-31T05:44:15;93225.28;;;18.65;51.30
65376;BME280;51976;47.332;9.404;2022-10-31T05:46:41;93223.84;;;18.58;51.00
65376;BME280;51976;47.332;9.404;2022-10-31T05:49:06;93230.91;;;18.68;50.81
65376;BME280;51976;47.332;9.404;2022-10-31T05:51:31;93231.88;;;18.64;51.06
65376;BME280;51976;47.332;9.404;2022-10-31T05:53:57;93209.72;;;18.48;51.17
65376;BME280;51976;47.332;9.404;2022-10-31T05:56:22;93236.38;;;18.68;51.20
65376;BME280;51976;47.332;9.404;2022-10-31T05:58:48;93233.66;;;18.68;51.13
65376;BME280;51976;47.332;9.404;2022-10-31T06:01:13;93231.41;;;18.70;50.88
65376;BME280;51976;47.332;9.404;2022-10-31T06:03:38;93231.06;;;18.63;50.91
65376;BME280;51976;47.332;9.404;2022-10-31T06:06:04;93229.31;;;18.67;50.88
65376;BME280;51976;47.332;9.404;2022-10-31T06:08:29;93235.41;;;18.64;50.98
65376;BME280;51976;47.332;9.404;2022-10-31T06:10:55;93231.72;;;18.69;50.81
65376;BME280;51976;47.332;9.404;2022-10-31T06:13:20;93235.91;;;18.66;50.92
65376;BME280;51976;47.332;9.404;2022-10-31T06:15:46;93235.25;;;18.69;50.93
65376;BME280;51976;47.332;9.404;2022-10-31T06:18:11;93228.81;;;18.65;50.77
65376;BME280;51976;47.332;9.404;2022-10-31T06:20:37;93227.38;;;18.68;50.86
65376;BME280;51976;47.332;9.404;2022-10-31T06:23:03;93234.44;;;18.69;50.89
65376;BME280;51976;47.332;9.404;2022-10-31T06:25:28;93236.06;;;18.61;50.88
65376;BME280;51976;47.332;9.404;2022-10-31T06:27:54;93228.03;;;18.65;50.86
65376;BME280;51976;47.332;9.404;2022-10-31T06:30:20;93234.59;;;18.64;50.89
65376;BME280;51976;47.332;9.404;2022-10-31T06:32:46;93236.22;;;18.65;50.97
65376;BME280;51976;47.332;9.404;2022-10-31T06:35:11;93235.25;;;18.69;50.81
65376;BME280;51976;47.332;9.404;2022-10-31T06:37:37;93238.31;;;18.68;51.16
65376;BME280;51976;47.332;9.404;2022-10-31T06:40:02;93235.25;;;18.69;50.82
65376;BME280;51976;47.332;9.404;2022-10-31T06:42:28;93235.41;;;18.73;51.02
65376;BME280;51976;47.332;9.404;2022-10-31T06:44:53;93233.97;;;18.67;50.95
65376;BME280;51976;47.332;9.404;2022-10-31T06:47:19;93240.06;;;18.64;51.01
65376;BME280;51976;47.332;9.404;2022-10-31T06:49:44;93234.59;;;18.64;50.77
65376;BME280;51976;47.332;9.404;2022-10-31T06:52:10;93247.13;;;18.65;50.98
65376;BME280;51976;47.332;9.404;2022-10-31T06:54:36;93226.75;;;18.62;51.01
65376;BME280;51976;47.332;9.404;2022-10-31T06:57:01;93235.09;;;18.66;50.91
65376;BME280;51976;47.332;9.404;2022-10-31T06:59:26;93231.06;;;18.63;50.97
65376;BME280;51976;47.332;9.404;2022-10-31T07:01:52;93231.06;;;18.63;50.77
65376;BME280;51976;47.332;9.404;2022-10-31T07:04:17;93239.44;;;18.67;51.17
65376;BME280;51976;47.332;9.404;2022-10-31T07:06:43;93240.38;;;18.62;51.01
65376;BME280;51976;47.332;9.404;2022-10-31T07:09:08;93238.63;;;18.66;50.79
65376;BME280;51976;47.332;9.404;2022-10-31T07:11:33;93230.75;;;18.65;50.72
65376;BME280;51976;47.332;9.404;2022-10-31T07:13:59;93227.69;;;18.66;50.85
65376;BME280;51976;47.332;9.404;2022-10-31T07:16:24;93239.09;;;18.68;50.99
65376;BME280;51976;47.332;9.404;2022-10-31T07:18:49;93230.91;;;18.68;50.54
65376;BME280;51976;47.332;9.404;2022-10-31T07:21:15;93225.78;;;18.67;50.95
65376;BME280;51976;47.332;9.404;2022-10-31T07:23:40;93231.56;;;18.65;50.65
65376;BME280;51976;47.332;9.404;2022-10-31T07:26:07;93229.00;;;18.69;50.74
65376;BME280;51976;47.332;9.404;2022-10-31T07:28:33;93236.69;;;18.67;50.82
65376;BME280;51976;47.332;9.404;2022-10-31T07:30:58;93226.09;;;18.74;50.72
65376;BME280;51976;47.332;9.404;2022-10-31T07:33:24;93231.06;;;18.72;50.63
65376;BME280;51976;47.332;9.404;2022-10-31T07:35:53;93232.53;;;18.69;50.83
65376;BME280;51976;47.332;9.404;2022-10-31T07:38:18;93237.19;;;18.69;50.71
65376;BME280;51976;47.332;9.404;2022-10-31T07:40:44;93224.34;;;18.69;50.92
65376;BME280;51976;47.332;9.404;2022-10-31T07:43:14;93230.59;;;18.70;50.96
65376;BME280;51976;47.332;9.404;2022-10-31T07:45:39;93226.56;;;18.67;51.05
65376;BME280;51976;47.332;9.404;2022-10-31T07:48:05;93224.50;;;18.64;50.82
65376;BME280;51976;47.332;9.404;2022-10-31T07:50:31;93221.91;;;18.68;50.83
65376;BME280;51976;47.332;9.404;2022-10-31T07:53:05;93224.16;;;18.66;50.99
65376;BME280;51976;47.332;9.404;2022-10-31T07:55:32;93222.88;;;18.63;51.07
65376;BME280;51976;47.332;9.404;2022-10-31T07:58:05;93214.84;;;18.67;51.08
65376;BME280;51976;47.332;9.404;2022-10-31T08:00:32;93225.13;;;18.70;51.03
65376;BME280;51976;47.332;9.404;2022-10-31T08:03:00;93223.53;;;18.69;50.86
65376;BME280;51976;47.332;9.404;2022-10-31T08:05:26;93228.81;;;18.65;51.01
65376;BME280;51976;47.332;9.404;2022-10-31T08:07:52;93227.69;;;18.66;50.88
65376;BME280;51976;47.332;9.404;2022-10-31T08:10:17;93223.53;;;18.69;50.84
65376;BME280;51976;47.332;9.404;2022-10-31T08:12:42;93216.47;;;18.68;50.88
65376;BME280;51976;47.332;9.404;2022-10-31T08:15:08;93216.94;;;18.70;50.66
65376;BME280;51976;47.332;9.404;2022-10-31T08:17:37;93211.00;;;18.68;50.81
65376;BME280;51976;47.332;9.404;2022-10-31T08:20:04;93216.94;;;18.70;50.84
65376;BME280;51976;47.332;9.404;2022-10-31T08:22:30;93217.25;;;18.68;50.81
65376;BME280;51976;47.332;9.404;2022-10-31T08:24:56;93211.47;;;18.70;51.05
65376;BME280;51976;47.332;9.404;2022-10-31T08:27:21;93205.53;;;18.68;50.83
65376;BME280;51976;47.332;9.404;2022-10-31T08:29:46;93207.13;;;18.69;50.87
65376;BME280;51976;47.332;9.404;2022-10-31T08:32:12;93211.63;;;18.73;51.05
65376;BME280;51976;47.332;9.404;2022-10-31T08:34:37;93206.50;;;18.72;50.84
65376;BME280;51976;47.332;9.404;2022-10-31T08:37:03;93199.44;;;18.71;51.05
65376;BME280;51976;47.332;9.404;2022-10-31T08:39:28;93205.84;;;18.75;50.86
65376;BME280;51976;47.332;9.404;2022-10-31T08:41:53;93201.53;;;18.74;50.63
65376;BME280;51976;47.332;9.404;2022-10-31T08:44:19;93194.59;;;18.76;50.75
65376;BME280;51976;47.332;9.404;2022-10-31T08:46:44;93201.03;;;18.72;50.89
65376;BME280;51976;47.332;9.404;2022-10-31T08:49:10;93201.34;;;18.70;51.08
65376;BME280;51976;47.332;9.404;2022-10-31T08:51:35;93200.56;;;18.70;51.23
65376;BME280;51976;47.332;9.404;2022-10-31T08:54:01;93190.75;;;18.69;51.21
65376;BME280;51976;47.332;9.404;2022-10-31T08:56:26;93196.38;;;18.64;51.17
65376;BME280;51976;47.332;9.404;2022-10-31T08:58:52;93195.56;;;18.63;51.03
65376;BME280;51976;47.332;9.404;2022-10-31T09:01:18;93192.53;;;18.65;51.02
65376;BME280;51976;47.332;9.404;2022-10-31T09:03:43;93190.44;;;18.62;51.25
65376;BME280;51976;47.332;9.404;2022-10-31T09:06:09;93195.09;;;18.61;51.16
65376;BME280;51976;47.332;9.404;2022-10-31T09:08:35;93195.75;;;18.67;51.06
65376;BME280;51976;47.332;9.404;2022-10-31T09:11:01;93192.38;;;18.61;51.28
65376;BME280;51976;47.332;9.404;2022-10-31T09:13:27;93190.44;;;18.62;51.23
65376;BME280;51976;47.332;9.404;2022-10-31T09:15:52;93192.84;;;18.63;51.29
65376;BME280;51976;47.332;9.404;2022-10-31T09:18:20;93187.38;;;18.63;51.17
65376;BME280;51976;47.332;9.404;2022-10-31T09:20:47;93190.91;;;18.64;51.04
65376;BME280;51976;47.332;9.404;2022-10-31T09:23:18;93190.59;;;18.65;51.34
65376;BME280;51976;47.332;9.404;2022-10-31T09:25:44;93189.31;;;18.71;50.93
65376;BME280;51976;47.332;9.404;2022-10-31T09:28:12;93192.38;;;18.70;50.87
65376;BME280;51976;47.332;9.404;2022-10-31T09:30:38;93184.97;;;18.62;52.21
65376;BME280;51976;47.332;9.404;2022-10-31T09:33:06;93185.78;;;18.62;52.47
65376;BME280;51976;47.332;9.404;2022-10-31T09:35:32;93183.03;;;18.71;53.47
65376;BME280;51976;47.332;9.404;2022-10-31T09:38:00;93189.63;;;18.78;51.97
65376;BME280;51976;47.332;9.404;2022-10-31T09:40:33;93193.66;;;18.72;50.81
65376;BME280;51976;47.332;9.404;2022-10-31T09:43:10;93190.28;;;18.75;50.86
65376;BME280;51976;47.332;9.404;2022-10-31T09:45:56;93178.06;;;18.81;50.98
65376;BME280;51976;47.332;9.404;2022-10-31T09:48:35;93192.69;;;18.85;50.81
65376;BME280;51976;47.332;9.404;2022-10-31T09:51:12;93180.75;;;18.90;50.78
65376;BME280;51976;47.332;9.404;2022-10-31T09:53:43;93170.94;;;18.98;50.97
65376;BME280;51976;47.332;9.404;2022-10-31T09:56:13;93175.75;;;19.01;51.86
65376;BME280;51976;47.332;9.404;2022-10-31T09:58:44;93185.38;;;19.07;51.37
65376;BME280;51976;47.332;9.404;2022-10-31T10:01:23;93186.81;;;19.04;51.53
65376;BME280;51976;47.332;9.404;2022-10-31T10:03:53;93183.94;;;19.09;51.87
65376;BME280;51976;47.332;9.404;2022-10-31T10:06:28;93182.47;;;19.12;52.16
65376;BME280;51976;47.332;9.404;2022-10-31T10:08:55;93191.16;;;19.14;52.75
65376;BME280;51976;47.332;9.404;2022-10-31T10:11:46;93185.31;;;19.15;53.02
65376;BME280;51976;47.332;9.404;2022-10-31T10:14:37;93184.50;;;19.23;53.18
65376;BME280;51976;47.332;9.404;2022-10-31T10:17:28;93183.03;;;19.35;52.90
65376;BME280;51976;47.332;9.404;2022-10-31T10:20:10;93174.97;;;19.38;53.12
65376;BME280;51976;47.332;9.404;2022-10-31T10:22:52;93164.03;;;19.38;53.16
65376;BME280;51976;47.332;9.404;2022-10-31T10:25:34;93173.16;;;19.42;53.13
65376;BME280;51976;47.332;9.404;2022-10-31T10:28:28;93167.50;;;19.47;52.83
65376;BME280;51976;47.332;9.404;2022-10-31T10:31:00;93166.56;;;19.52;52.93
65376;BME280;51976;47.332;9.404;2022-10-31T10:33:37;93166.88;;;19.50;52.71
65376;BME280;51976;47.332;9.404;2022-10-31T10:36:10;93170.09;;;19.52;52.96
65376;BME280;51976;47.332;9.404;2022-10-31T10:38:50;93154.97;;;19.55;52.95
65376;BME280;51976;47.332;9.404;2022-10-31T10:41:20;93152.06;;;19.60;52.63
65376;BME280;51976;47.332;9.404;2022-10-31T10:43:49;93155.88;;;19.68;52.46
65376;BME280;51976;47.332;9.404;2022-10-31T10:46:28;93154.75;;;19.69;52.39
65376;BME280;51976;47.332;9.404;2022-10-31T10:49:25;93152.94;;;19.73;52.33
65376;BME280;51976;47.332;9.404;2022-10-31T10:52:29;93144.38;;;19.74;52.53
65376;BME280;51976;47.332;9.404;2022-10-31T10:55:22;93146.31;;;19.74;52.48
65376;BME280;51976;47.332;9.404;2022-10-31T10:57:58;93140.53;;;19.75;52.54
65376;BME280;51976;47.332;9.404;2022-10-31T11:00:27;93143.41;;;19.79;52.42
65376;BME280;51976;47.332;9.404;2022-10-31T11:02:54;93144.06;;;19.76;52.50
65376;BME280;51976;47.332;9.404;2022-10-31T11:05:25;93137.31;;;19.73;52.45
65376;BME280;51976;47.332;9.404;2022-10-31T11:07:53;93133.31;;;19.71;52.37
65376;BME280;51976;47.332;9.404;2022-10-31T11:10:19;93131.44;;;19.63;52.74
65376;BME280;51976;47.332;9.404;2022-10-31T11:12:57;93138.38;;;19.60;52.74
65376;BME280;51976;47.332;9.404;2022-10-31T11:15:24;93119.56;;;19.58;52.86
65376;BME280;51976;47.332;9.404;2022-10-31T11:17:52;93125.53;;;19.52;52.87
65376;BME280;51976;47.332;9.404;2022-10-31T11:20:28;93123.94;;;19.51;52.82
65376;BME280;51976;47.332;9.404;2022-10-31T11:23:16;93125.38;;;19.48;52.94
65376;BME280;51976;47.332;9.404;2022-10-31T11:25:59;93119.75;;;19.45;52.88
65376;BME280;51976;47.332;9.404;2022-10-31T11:28:26;93129.91;;;19.44;52.85
65376;BME280;51976;47.332;9.404;2022-10-31T11:30:56;93132.50;;;19.41;53.26
65376;BME280;51976;47.332;9.404;2022-10-31T11:33:29;93130.09;;;19.39;53.08
65376;BME280;51976;47.332;9.404;2022-10-31T11:35:56;93121.91;;;19.39;53.26
65376;BME280;51976;47.332;9.404;2022-10-31T11:38:32;93126.25;;;19.40;53.05
65376;BME280;51976;47.332;9.404;2022-10-31T11:41:11;93126.56;;;19.39;53.26
65376;BME280;51976;47.332;9.404;2022-10-31T11:43:38;93124.97;;;19.38;53.33
65376;BME280;51976;47.332;9.404;2022-10-31T11:46:11;93123.69;;;19.35;53.23
65376;BME280;51976;47.332;9.404;2022-10-31T11:48:50;93126.75;;;19.34;53.16
65376;BME280;51976;47.332;9.404;2022-10-31T11:51:21;93115.34;;;19.32;53.31
65376;BME280;51976;47.332;9.404;2022-10-31T11:53:51;93111.00;;;19.31;53.35
65376;BME280;51976;47.332;9.404;2022-10-31T11:56:17;93108.28;;;19.31;53.35
65376;BME280;51976;47.332;9.404;2022-10-31T11:58:43;93106.19;;;19.27;53.42
65376;BME280;51976;47.332;9.404;2022-10-31T12:01:24;93108.94;;;19.27;53.50
65376;BME280;51976;47.332;9.404;2022-10-31T12:04:06;93103.47;;;19.27;53.42
65376;BME280;51976;47.332;9.404;2022-10-31T12:06:37;93107.31;;;19.26;53.42
65376;BME280;51976;47.332;9.404;2022-10-31T12:09:23;93107.66;;;19.25;53.20
65376;BME280;51976;47.332;9.404;2022-10-31T12:12:18;93094.31;;;19.23;53.12
65376;BME280;51976;47.332;9.404;2022-10-31T12:15:04;93108.44;;;19.25;53.04
65376;BME280;51976;47.332;9.404;2022-10-31T12:17:53;93112.78;;;19.26;53.12
65376;BME280;51976;47.332;9.404;2022-10-31T12:23:24;93085.97;;;19.20;53.27
65376;BME280;51976;47.332;9.404;2022-10-31T12:26:07;93096.09;;;19.19;53.46
65376;BME280;51976;47.332;9.404;2022-10-31T12:28:59;93090.97;;;19.18;53.20
65376;BME280;51976;47.332;9.404;2022-10-31T12:32:03;93089.69;;;19.15;53.34
65376;BME280;51976;47.332;9.404;2022-10-31T12:34:59;93078.75;;;19.15;53.48
65376;BME280;51976;47.332;9.404;2022-10-31T12:37:51;93073.75;;;19.17;53.46
65376;BME280;51976;47.332;9.404;2022-10-31T12:40:43;93078.91;;;19.19;53.32
65376;BME280;51976;47.332;9.404;2022-10-31T12:46:17;93074.56;;;19.18;53.16
65376;BME280;51976;47.332;9.404;2022-10-31T12:49:03;93062.03;;;19.17;53.34
65376;BME280;51976;47.332;9.404;2022-10-31T12:51:59;93067.63;;;19.20;53.40
65376;BME280;51976;47.332;9.404;2022-10-31T12:54:47;93060.38;;;19.24;52.98
65376;BME280;51976;47.332;9.404;2022-10-31T12:57:40;93060.34;;;19.33;52.93
65376;BME280;51976;47.332;9.404;2022-10-31T13:00:13;93060.69;;;19.32;52.93
65376;BME280;51976;47.332;9.404;2022-10-31T13:02:49;93049.28;;;19.30;52.93
65376;BME280;51976;47.332;9.404;2022-10-31T13:05:32;93040.41;;;19.33;52.84
65376;BME280;51976;47.332;9.404;2022-10-31T13:08:17;93045.06;;;19.32;52.89
65376;BME280;51976;47.332;9.404;2022-10-31T13:10:48;93038.94;;;19.35;52.93
65376;BME280;51976;47.332;9.404;2022-10-31T13:13:39;93026.22;;;19.39;52.59
65376;BME280;51976;47.332;9.404;2022-10-31T13:16:15;93020.44;;;19.41;52.53
65376;BME280;51976;47.332;9.404;2022-10-31T13:18:52;93024.28;;;19.40;52.99
65376;BME280;51976;47.332;9.404;2022-10-31T13:21:34;93022.28;;;19.49;52.65
65376;BME280;51976;47.332;9.404;2022-10-31T13:24:03;93022.59;;;19.56;52.53
65376;BME280;51976;47.332;9.404;2022-10-31T13:26:38;93011.78;;;19.59;52.52
65376;BME280;51976;47.332;9.404;2022-10-31T13:29:18;93023.19;;;19.62;52.52
65376;BME280;51976;47.332;9.404;2022-10-31T13:31:44;93016.59;;;19.63;52.53